sensor_id;sensor_type;location;lat;lon;timestamp;temperature;humidity
3842;DHT22;1936;47.074;15.336;2023-02-28T00:00:08;2.00;57.40
3842;DHT22;1936;47.074;15.336;2023-02-28T00:02:13;2.10;57.10
3842;DHT22;1936;47.074;15.336;2023-02-28T00:04:19;2.10;56.10
3842;DHT22;1936;47.074;15.336;2023-02-28T00:06:24;2.00;57.00
3842;DHT22;1936;47.074;15.336;2023-02-28T00:08:28;2.00;57.20
3842;DHT22;1936;47.074;15.336;2023-02-28T00:10:31;2.10;57.40
3842;DHT22;1936;47.074;15.336;2023-02-28T00:12:35;2.10;57.50
3842;DHT22;1936;47.074;15.336;2023-02-28T00:14:39;2.00;57.40
3842;DHT22;1936;47.074;15.336;2023-02-28T00:16:42;2.00;58.60
3842;DHT22;1936;47.074;15.336;2023-02-28T00:18:46;2.00;59.40
3842;DHT22;1936;47.074;15.336;2023-02-28T00:20:50;1.90;59.50
3842;DHT22;1936;47.074;15.336;2023-02-28T00:22:55;1.80;60.60
3842;DHT22;1936;47.074;15.336;2023-02-28T00:24:59;1.80;61.90
3842;DHT22;1936;47.074;15.336;2023-02-28T00:27:03;1.80;61.30
3842;DHT22;1936;47.074;15.336;2023-02-28T00:29:06;1.80;60.30
3842;DHT22;1936;47.074;15.336;2023-02-28T00:31:10;1.90;59.60
3842;DHT22;1936;47.074;15.336;2023-02-28T00:33:13;1.90;58.60
3842;DHT22;1936;47.074;15.336;2023-02-28T00:35:17;1.80;58.60
3842;DHT22;1936;47.074;15.336;2023-02-28T00:37:21;1.90;57.80
3842;DHT22;1936;47.074;15.336;2023-02-28T00:39:25;1.90;58.30
3842;DHT22;1936;47.074;15.336;2023-02-28T00:41:29;1.90;58.20
3842;DHT22;1936;47.074;15.336;2023-02-28T00:43:33;1.80;58.20
3842;DHT22;1936;47.074;15.336;2023-02-28T00:45:37;1.60;58.70
3842;DHT22;1936;47.074;15.336;2023-02-28T00:47:40;1.60;59.40
3842;DHT22;1936;47.074;15.336;2023-02-28T00:49:44;1.70;59.50
3842;DHT22;1936;47.074;15.336;2023-02-28T00:51:47;1.70;59.60
3842;DHT22;1936;47.074;15.336;2023-02-28T00:53:51;1.90;59.00
3842;DHT22;1936;47.074;15.336;2023-02-28T00:55:56;1.90;59.00
3842;DHT22;1936;47.074;15.336;2023-02-28T00:58:00;2.10;58.20
3842;DHT22;1936;47.074;15.336;2023-02-28T01:00:05;2.00;57.30
3842;DHT22;1936;47.074;15.336;2023-02-28T01:02:09;1.90;57.70
3842;DHT22;1936;47.074;15.336;2023-02-28T01:04:12;2.00;57.70
3842;DHT22;1936;47.074;15.336;2023-02-28T01:06:16;2.10;57.80
3842;DHT22;1936;47.074;15.336;2023-02-28T01:08:19;2.20;57.40
3842;DHT22;1936;47.074;15.336;2023-02-28T01:10:23;2.30;57.00
3842;DHT22;1936;47.074;15.336;2023-02-28T01:12:29;2.20;57.10
3842;DHT22;1936;47.074;15.336;2023-02-28T01:14:32;2.30;56.80
3842;DHT22;1936;47.074;15.336;2023-02-28T01:16:36;2.30;56.80
3842;DHT22;1936;47.074;15.336;2023-02-28T01:18:39;2.20;57.40
3842;DHT22;1936;47.074;15.336;2023-02-28T01:20:43;2.20;57.40
3842;DHT22;1936;47.074;15.336;2023-02-28T01:22:48;2.00;57.30
3842;DHT22;1936;47.074;15.336;2023-02-28T01:24:51;2.00;58.00
3842;DHT22;1936;47.074;15.336;2023-02-28T01:26:55;2.00;58.00
3842;DHT22;1936;47.074;15.336;2023-02-28T01:28:59;2.20;57.40
3842;DHT22;1936;47.074;15.336;2023-02-28T01:31:03;2.10;58.00
3842;DHT22;1936;47.074;15.336;2023-02-28T01:33:07;2.10;57.80
3842;DHT22;1936;47.074;15.336;2023-02-28T01:35:10;2.10;57.50
3842;DHT22;1936;47.074;15.336;2023-02-28T01:37:14;2.00;58.00
3842;DHT22;1936;47.074;15.336;2023-02-28T01:39:17;2.10;57.90
3842;DHT22;1936;47.074;15.336;2023-02-28T01:41:22;2.10;57.60
3842;DHT22;1936;47.074;15.336;2023-02-28T01:43:28;2.20;57.80
3842;DHT22;1936;47.074;15.336;2023-02-28T01:45:35;1.90;57.80
3842;DHT22;1936;47.074;15.336;2023-02-28T01:47:41;1.90;57.80
3842;DHT22;1936;47.074;15.336;2023-02-28T01:49:45;2.10;57.80
3842;DHT22;1936;47.074;15.336;2023-02-28T01:51:51;2.20;57.80
3842;DHT22;1936;47.074;15.336;2023-02-28T01:54:01;2.10;57.60
3842;DHT22;1936;47.074;15.336;2023-02-28T01:56:07;2.20;57.60
3842;DHT22;1936;47.074;15.336;2023-02-28T01:58:11;2.30;57.60
3842;DHT22;1936;47.074;15.336;2023-02-28T02:00:18;2.30;57.50
3842;DHT22;1936;47.074;15.336;2023-02-28T02:02:25;2.20;57.90
3842;DHT22;1936;47.074;15.336;2023-02-28T02:04:34;2.20;59.00
3842;DHT22;1936;47.074;15.336;2023-02-28T02:06:43;2.20;58.20
3842;DHT22;1936;47.074;15.336;2023-02-28T02:08:47;2.20;58.30
3842;DHT22;1936;47.074;15.336;2023-02-28T02:10:52;2.20;58.00
3842;DHT22;1936;47.074;15.336;2023-02-28T02:13:19;2.20;58.00
3842;DHT22;1936;47.074;15.336;2023-02-28T02:15:31;2.20;59.70
3842;DHT22;1936;47.074;15.336;2023-02-28T02:17:45;2.30;59.00
3842;DHT22;1936;47.074;15.336;2023-02-28T02:20:14;2.40;58.80
3842;DHT22;1936;47.074;15.336;2023-02-28T02:22:36;2.50;58.90
3842;DHT22;1936;47.074;15.336;2023-02-28T02:27:25;2.50;58.00
3842;DHT22;1936;47.074;15.336;2023-02-28T02:29:45;2.50;59.20
3842;DHT22;1936;47.074;15.336;2023-02-28T02:32:18;2.40;60.30
3842;DHT22;1936;47.074;15.336;2023-02-28T02:34:38;2.50;59.10
3842;DHT22;1936;47.074;15.336;2023-02-28T02:36:48;2.50;59.00
3842;DHT22;1936;47.074;15.336;2023-02-28T02:39:00;2.50;58.90
3842;DHT22;1936;47.074;15.336;2023-02-28T02:41:11;2.50;58.50
3842;DHT22;1936;47.074;15.336;2023-02-28T02:43:20;2.50;57.80
3842;DHT22;1936;47.074;15.336;2023-02-28T02:45:27;2.50;57.80
3842;DHT22;1936;47.074;15.336;2023-02-28T02:47:39;2.40;57.90
3842;DHT22;1936;47.074;15.336;2023-02-28T02:49:47;2.30;59.40
3842;DHT22;1936;47.074;15.336;2023-02-28T02:51:53;2.30;60.50
3842;DHT22;1936;47.074;15.336;2023-02-28T02:54:02;2.30;60.30
3842;DHT22;1936;47.074;15.336;2023-02-28T02:56:08;2.30;60.30
3842;DHT22;1936;47.074;15.336;2023-02-28T02:58:16;2.30;60.30
3842;DHT22;1936;47.074;15.336;2023-02-28T03:00:23;2.30;60.10
3842;DHT22;1936;47.074;15.336;2023-02-28T03:02:30;2.40;59.40
3842;DHT22;1936;47.074;15.336;2023-02-28T03:04:42;2.40;59.40
3842;DHT22;1936;47.074;15.336;2023-02-28T03:06:47;2.40;59.10
3842;DHT22;1936;47.074;15.336;2023-02-28T03:08:51;2.40;59.30
3842;DHT22;1936;47.074;15.336;2023-02-28T03:10:58;2.40;59.80
3842;DHT22;1936;47.074;15.336;2023-02-28T03:13:25;2.30;60.40
3842;DHT22;1936;47.074;15.336;2023-02-28T03:15:41;2.30;61.00
3842;DHT22;1936;47.074;15.336;2023-02-28T03:18:01;2.30;60.30
3842;DHT22;1936;47.074;15.336;2023-02-28T03:20:15;2.30;60.70
3842;DHT22;1936;47.074;15.336;2023-02-28T03:24:58;2.30;61.10
3842;DHT22;1936;47.074;15.336;2023-02-28T03:27:07;2.30;61.30
3842;DHT22;1936;47.074;15.336;2023-02-28T03:29:15;2.30;61.20
3842;DHT22;1936;47.074;15.336;2023-02-28T03:31:25;2.40;61.50
3842;DHT22;1936;47.074;15.336;2023-02-28T03:33:34;2.40;62.00
3842;DHT22;1936;47.074;15.336;2023-02-28T03:35:40;2.40;61.80
3842;DHT22;1936;47.074;15.336;2023-02-28T03:37:50;2.40;61.30
3842;DHT22;1936;47.074;15.336;2023-02-28T03:39:58;2.40;61.80
3842;DHT22;1936;47.074;15.336;2023-02-28T03:42:08;2.40;60.90
3842;DHT22;1936;47.074;15.336;2023-02-28T03:44:16;2.40;61.50
3842;DHT22;1936;47.074;15.336;2023-02-28T03:46:23;2.40;61.40
3842;DHT22;1936;47.074;15.336;2023-02-28T03:48:32;2.40;61.20
3842;DHT22;1936;47.074;15.336;2023-02-28T03:50:40;2.40;63.10
3842;DHT22;1936;47.074;15.336;2023-02-28T03:52:49;2.40;62.70
3842;DHT22;1936;47.074;15.336;2023-02-28T03:54:56;2.40;61.20
3842;DHT22;1936;47.074;15.336;2023-02-28T03:57:05;2.30;61.10
3842;DHT22;1936;47.074;15.336;2023-02-28T03:59:14;2.30;60.90
3842;DHT22;1936;47.074;15.336;2023-02-28T04:01:22;2.30;60.30
3842;DHT22;1936;47.074;15.336;2023-02-28T04:03:26;2.40;60.10
3842;DHT22;1936;47.074;15.336;2023-02-28T04:05:30;2.40;60.30
3842;DHT22;1936;47.074;15.336;2023-02-28T04:07:34;2.30;60.40
3842;DHT22;1936;47.074;15.336;2023-02-28T04:09:40;2.40;60.40
3842;DHT22;1936;47.074;15.336;2023-02-28T04:11:46;2.40;60.60
3842;DHT22;1936;47.074;15.336;2023-02-28T04:13:53;2.40;60.90
3842;DHT22;1936;47.074;15.336;2023-02-28T04:15:56;2.30;61.70
3842;DHT22;1936;47.074;15.336;2023-02-28T04:18:00;2.30;63.00
3842;DHT22;1936;47.074;15.336;2023-02-28T04:20:04;2.30;62.30
3842;DHT22;1936;47.074;15.336;2023-02-28T04:22:11;2.20;62.60
3842;DHT22;1936;47.074;15.336;2023-02-28T04:24:17;2.20;62.80
3842;DHT22;1936;47.074;15.336;2023-02-28T04:26:22;2.30;63.50
3842;DHT22;1936;47.074;15.336;2023-02-28T04:28:26;2.30;62.10
3842;DHT22;1936;47.074;15.336;2023-02-28T04:30:29;2.30;61.20
3842;DHT22;1936;47.074;15.336;2023-02-28T04:32:34;2.30;63.10
3842;DHT22;1936;47.074;15.336;2023-02-28T04:34:38;2.30;62.00
3842;DHT22;1936;47.074;15.336;2023-02-28T04:36:41;2.40;61.70
3842;DHT22;1936;47.074;15.336;2023-02-28T04:38:46;2.40;61.40
3842;DHT22;1936;47.074;15.336;2023-02-28T04:40:49;2.40;61.30
3842;DHT22;1936;47.074;15.336;2023-02-28T04:42:54;2.30;61.40
3842;DHT22;1936;47.074;15.336;2023-02-28T04:44:57;2.40;61.00
3842;DHT22;1936;47.074;15.336;2023-02-28T04:47:01;2.50;60.80
3842;DHT22;1936;47.074;15.336;2023-02-28T04:49:04;2.40;62.20
3842;DHT22;1936;47.074;15.336;2023-02-28T04:51:09;2.40;62.30
3842;DHT22;1936;47.074;15.336;2023-02-28T04:53:13;2.40;62.50
3842;DHT22;1936;47.074;15.336;2023-02-28T04:55:16;2.40;62.50
3842;DHT22;1936;47.074;15.336;2023-02-28T04:57:20;2.30;63.00
3842;DHT22;1936;47.074;15.336;2023-02-28T04:59:25;2.30;62.60
3842;DHT22;1936;47.074;15.336;2023-02-28T05:01:30;2.20;62.60
3842;DHT22;1936;47.074;15.336;2023-02-28T05:03:34;2.10;62.20
3842;DHT22;1936;47.074;15.336;2023-02-28T05:05:37;1.90;63.40
3842;DHT22;1936;47.074;15.336;2023-02-28T05:07:40;2.00;64.70
3842;DHT22;1936;47.074;15.336;2023-02-28T05:09:44;2.00;63.90
3842;DHT22;1936;47.074;15.336;2023-02-28T05:11:48;2.10;63.20
3842;DHT22;1936;47.074;15.336;2023-02-28T05:13:52;2.10;62.40
3842;DHT22;1936;47.074;15.336;2023-02-28T05:15:57;2.10;63.00
3842;DHT22;1936;47.074;15.336;2023-02-28T05:18:00;2.30;62.80
3842;DHT22;1936;47.074;15.336;2023-02-28T05:20:05;2.20;62.40
3842;DHT22;1936;47.074;15.336;2023-02-28T05:22:16;2.10;63.10
3842;DHT22;1936;47.074;15.336;2023-02-28T05:24:20;2.10;63.00
3842;DHT22;1936;47.074;15.336;2023-02-28T05:26:26;2.10;63.10
3842;DHT22;1936;47.074;15.336;2023-02-28T05:28:30;2.10;63.10
3842;DHT22;1936;47.074;15.336;2023-02-28T05:30:34;1.90;62.70
3842;DHT22;1936;47.074;15.336;2023-02-28T05:32:39;1.80;62.80
3842;DHT22;1936;47.074;15.336;2023-02-28T05:34:44;1.90;62.50
3842;DHT22;1936;47.074;15.336;2023-02-28T05:36:48;2.10;61.20
3842;DHT22;1936;47.074;15.336;2023-02-28T05:38:51;2.00;61.00
3842;DHT22;1936;47.074;15.336;2023-02-28T05:40:55;2.20;62.00
3842;DHT22;1936;47.074;15.336;2023-02-28T05:42:59;2.30;61.80
3842;DHT22;1936;47.074;15.336;2023-02-28T05:45:03;2.30;60.50
3842;DHT22;1936;47.074;15.336;2023-02-28T05:47:07;2.30;59.60
3842;DHT22;1936;47.074;15.336;2023-02-28T05:49:12;2.20;59.40
3842;DHT22;1936;47.074;15.336;2023-02-28T05:51:16;2.30;60.30
3842;DHT22;1936;47.074;15.336;2023-02-28T05:53:20;2.40;60.90
3842;DHT22;1936;47.074;15.336;2023-02-28T05:55:24;2.30;61.00
3842;DHT22;1936;47.074;15.336;2023-02-28T05:57:27;2.30;60.10
3842;DHT22;1936;47.074;15.336;2023-02-28T05:59:31;2.40;60.40
3842;DHT22;1936;47.074;15.336;2023-02-28T06:01:36;2.40;60.50
3842;DHT22;1936;47.074;15.336;2023-02-28T06:03:40;2.30;60.70
3842;DHT22;1936;47.074;15.336;2023-02-28T06:05:45;2.40;60.50
3842;DHT22;1936;47.074;15.336;2023-02-28T06:07:49;2.30;60.60
3842;DHT22;1936;47.074;15.336;2023-02-28T06:09:52;2.40;60.70
3842;DHT22;1936;47.074;15.336;2023-02-28T06:11:57;2.40;60.40
3842;DHT22;1936;47.074;15.336;2023-02-28T06:14:01;2.40;60.50
3842;DHT22;1936;47.074;15.336;2023-02-28T06:16:05;2.50;59.70
3842;DHT22;1936;47.074;15.336;2023-02-28T06:18:09;2.50;59.50
3842;DHT22;1936;47.074;15.336;2023-02-28T06:20:12;2.50;59.30
3842;DHT22;1936;47.074;15.336;2023-02-28T06:22:17;2.50;58.50
3842;DHT22;1936;47.074;15.336;2023-02-28T06:24:22;2.60;58.70
3842;DHT22;1936;47.074;15.336;2023-02-28T06:26:26;2.50;58.90
3842;DHT22;1936;47.074;15.336;2023-02-28T06:28:29;2.40;60.00
3842;DHT22;1936;47.074;15.336;2023-02-28T06:30:32;2.40;61.80
3842;DHT22;1936;47.074;15.336;2023-02-28T06:32:36;2.30;61.60
3842;DHT22;1936;47.074;15.336;2023-02-28T06:34:39;2.40;61.90
3842;DHT22;1936;47.074;15.336;2023-02-28T06:36:43;2.40;60.90
3842;DHT22;1936;47.074;15.336;2023-02-28T06:38:48;2.30;62.60
3842;DHT22;1936;47.074;15.336;2023-02-28T06:40:57;2.30;61.20
3842;DHT22;1936;47.074;15.336;2023-02-28T06:43:01;2.50;60.20
3842;DHT22;1936;47.074;15.336;2023-02-28T06:45:06;2.60;59.30
3842;DHT22;1936;47.074;15.336;2023-02-28T06:47:11;2.70;59.00
3842;DHT22;1936;47.074;15.336;2023-02-28T06:49:15;2.80;59.50
3842;DHT22;1936;47.074;15.336;2023-02-28T06:51:20;2.90;59.10
3842;DHT22;1936;47.074;15.336;2023-02-28T06:53:24;2.90;58.80
3842;DHT22;1936;47.074;15.336;2023-02-28T06:55:29;2.70;58.60
3842;DHT22;1936;47.074;15.336;2023-02-28T06:57:33;2.60;59.30
3842;DHT22;1936;47.074;15.336;2023-02-28T06:59:37;2.80;59.70
3842;DHT22;1936;47.074;15.336;2023-02-28T07:01:40;2.80;60.30
3842;DHT22;1936;47.074;15.336;2023-02-28T07:03:44;2.90;60.00
3842;DHT22;1936;47.074;15.336;2023-02-28T07:05:47;3.10;59.10
3842;DHT22;1936;47.074;15.336;2023-02-28T07:07:50;3.10;57.50
3842;DHT22;1936;47.074;15.336;2023-02-28T07:09:54;2.80;57.80
3842;DHT22;1936;47.074;15.336;2023-02-28T07:12:00;2.90;57.40
3842;DHT22;1936;47.074;15.336;2023-02-28T07:14:03;3.10;56.50
3842;DHT22;1936;47.074;15.336;2023-02-28T07:16:10;3.00;56.00
3842;DHT22;1936;47.074;15.336;2023-02-28T07:18:13;2.80;57.10
3842;DHT22;1936;47.074;15.336;2023-02-28T07:20:17;3.00;57.60
3842;DHT22;1936;47.074;15.336;2023-02-28T07:22:21;2.90;57.60
3842;DHT22;1936;47.074;15.336;2023-02-28T07:24:24;3.10;57.50
3842;DHT22;1936;47.074;15.336;2023-02-28T07:26:30;3.00;57.10
3842;DHT22;1936;47.074;15.336;2023-02-28T07:28:37;2.90;58.20
3842;DHT22;1936;47.074;15.336;2023-02-28T07:30:41;2.80;57.70
3842;DHT22;1936;47.074;15.336;2023-02-28T07:32:45;3.00;56.80
3842;DHT22;1936;47.074;15.336;2023-02-28T07:34:48;3.10;57.00
3842;DHT22;1936;47.074;15.336;2023-02-28T07:36:53;3.10;57.70
3842;DHT22;1936;47.074;15.336;2023-02-28T07:38:58;3.00;57.80
3842;DHT22;1936;47.074;15.336;2023-02-28T07:41:02;2.90;57.50
3842;DHT22;1936;47.074;15.336;2023-02-28T07:43:07;3.10;57.70
3842;DHT22;1936;47.074;15.336;2023-02-28T07:45:12;3.30;57.10
3842;DHT22;1936;47.074;15.336;2023-02-28T07:47:16;3.30;57.10
3842;DHT22;1936;47.074;15.336;2023-02-28T07:49:19;3.50;57.00
3842;DHT22;1936;47.074;15.336;2023-02-28T07:51:23;3.60;55.70
3842;DHT22;1936;47.074;15.336;2023-02-28T07:53:26;3.60;56.50
3842;DHT22;1936;47.074;15.336;2023-02-28T07:55:30;3.70;56.80
3842;DHT22;1936;47.074;15.336;2023-02-28T07:57:34;3.80;56.10
3842;DHT22;1936;47.074;15.336;2023-02-28T07:59:37;3.80;55.60
3842;DHT22;1936;47.074;15.336;2023-02-28T08:01:42;3.50;54.60
3842;DHT22;1936;47.074;15.336;2023-02-28T08:03:46;3.70;55.30
3842;DHT22;1936;47.074;15.336;2023-02-28T08:05:50;3.60;55.60
3842;DHT22;1936;47.074;15.336;2023-02-28T08:07:54;3.70;55.40
3842;DHT22;1936;47.074;15.336;2023-02-28T08:09:58;3.60;55.90
3842;DHT22;1936;47.074;15.336;2023-02-28T08:12:01;3.60;56.50
3842;DHT22;1936;47.074;15.336;2023-02-28T08:14:05;3.50;55.60
3842;DHT22;1936;47.074;15.336;2023-02-28T08:16:08;3.70;55.60
3842;DHT22;1936;47.074;15.336;2023-02-28T08:18:13;3.80;55.00
3842;DHT22;1936;47.074;15.336;2023-02-28T08:20:17;3.90;54.40
3842;DHT22;1936;47.074;15.336;2023-02-28T08:22:21;3.70;54.50
3842;DHT22;1936;47.074;15.336;2023-02-28T08:24:24;3.70;54.70
3842;DHT22;1936;47.074;15.336;2023-02-28T08:26:28;3.40;55.70
3842;DHT22;1936;47.074;15.336;2023-02-28T08:28:32;3.50;56.10
3842;DHT22;1936;47.074;15.336;2023-02-28T08:30:35;3.40;55.60
3842;DHT22;1936;47.074;15.336;2023-02-28T08:32:39;3.40;56.40
3842;DHT22;1936;47.074;15.336;2023-02-28T08:34:44;3.40;56.10
3842;DHT22;1936;47.074;15.336;2023-02-28T08:36:49;3.40;57.10
3842;DHT22;1936;47.074;15.336;2023-02-28T08:38:52;3.30;56.30
3842;DHT22;1936;47.074;15.336;2023-02-28T08:40:59;3.50;56.90
3842;DHT22;1936;47.074;15.336;2023-02-28T08:43:03;3.70;55.60
3842;DHT22;1936;47.074;15.336;2023-02-28T08:45:07;3.70;55.20
3842;DHT22;1936;47.074;15.336;2023-02-28T08:47:10;3.80;55.40
3842;DHT22;1936;47.074;15.336;2023-02-28T08:49:14;3.90;55.10
3842;DHT22;1936;47.074;15.336;2023-02-28T08:51:19;3.70;55.40
3842;DHT22;1936;47.074;15.336;2023-02-28T08:53:29;3.60;56.00
3842;DHT22;1936;47.074;15.336;2023-02-28T08:55:33;3.60;57.30
3842;DHT22;1936;47.074;15.336;2023-02-28T08:57:36;3.80;56.40
3842;DHT22;1936;47.074;15.336;2023-02-28T08:59:39;3.80;57.30
3842;DHT22;1936;47.074;15.336;2023-02-28T09:01:43;4.20;55.10
3842;DHT22;1936;47.074;15.336;2023-02-28T09:03:48;4.20;54.00
3842;DHT22;1936;47.074;15.336;2023-02-28T09:05:54;3.90;54.20
3842;DHT22;1936;47.074;15.336;2023-02-28T09:07:59;3.90;54.10
3842;DHT22;1936;47.074;15.336;2023-02-28T09:10:03;4.10;53.50
3842;DHT22;1936;47.074;15.336;2023-02-28T09:12:07;4.00;54.70
3842;DHT22;1936;47.074;15.336;2023-02-28T09:14:10;4.00;55.90
3842;DHT22;1936;47.074;15.336;2023-02-28T09:16:15;4.10;56.90
3842;DHT22;1936;47.074;15.336;2023-02-28T09:18:19;4.60;55.60
3842;DHT22;1936;47.074;15.336;2023-02-28T09:20:23;4.70;53.90
3842;DHT22;1936;47.074;15.336;2023-02-28T09:22:27;4.70;52.60
3842;DHT22;1936;47.074;15.336;2023-02-28T09:24:32;4.70;52.50
3842;DHT22;1936;47.074;15.336;2023-02-28T09:26:35;4.80;52.60
3842;DHT22;1936;47.074;15.336;2023-02-28T09:28:53;5.00;51.50
3842;DHT22;1936;47.074;15.336;2023-02-28T09:30:57;5.10;52.20
3842;DHT22;1936;47.074;15.336;2023-02-28T09:33:00;5.10;52.40
3842;DHT22;1936;47.074;15.336;2023-02-28T09:35:05;4.90;51.90
3842;DHT22;1936;47.074;15.336;2023-02-28T09:37:08;5.00;52.30
3842;DHT22;1936;47.074;15.336;2023-02-28T09:39:12;5.00;51.20
3842;DHT22;1936;47.074;15.336;2023-02-28T09:41:21;5.20;51.30
3842;DHT22;1936;47.074;15.336;2023-02-28T09:43:27;4.70;50.70
3842;DHT22;1936;47.074;15.336;2023-02-28T09:45:35;5.00;51.70
3842;DHT22;1936;47.074;15.336;2023-02-28T09:47:41;4.60;51.40
3842;DHT22;1936;47.074;15.336;2023-02-28T09:49:48;4.70;51.60
3842;DHT22;1936;47.074;15.336;2023-02-28T09:51:57;5.00;52.00
3842;DHT22;1936;47.074;15.336;2023-02-28T09:54:02;5.30;51.60
3842;DHT22;1936;47.074;15.336;2023-02-28T09:56:08;5.80;51.20
3842;DHT22;1936;47.074;15.336;2023-02-28T09:58:19;6.00;50.50
3842;DHT22;1936;47.074;15.336;2023-02-28T10:00:28;6.20;48.80
3842;DHT22;1936;47.074;15.336;2023-02-28T10:02:49;6.00;48.00
3842;DHT22;1936;47.074;15.336;2023-02-28T10:04:57;6.00;48.30
3842;DHT22;1936;47.074;15.336;2023-02-28T10:07:03;6.00;48.50
3842;DHT22;1936;47.074;15.336;2023-02-28T10:09:13;6.10;49.20
3842;DHT22;1936;47.074;15.336;2023-02-28T10:11:19;6.10;47.90
3842;DHT22;1936;47.074;15.336;2023-02-28T10:13:31;5.70;47.90
3842;DHT22;1936;47.074;15.336;2023-02-28T10:15:36;6.00;47.90
3842;DHT22;1936;47.074;15.336;2023-02-28T10:17:42;6.10;48.50
3842;DHT22;1936;47.074;15.336;2023-02-28T10:20:10;5.90;49.00
3842;DHT22;1936;47.074;15.336;2023-02-28T10:22:19;5.60;50.10
3842;DHT22;1936;47.074;15.336;2023-02-28T10:24:28;5.90;50.60
3842;DHT22;1936;47.074;15.336;2023-02-28T10:26:33;6.30;50.50
3842;DHT22;1936;47.074;15.336;2023-02-28T10:28:38;6.10;50.50
3842;DHT22;1936;47.074;15.336;2023-02-28T10:30:44;6.20;49.00
3842;DHT22;1936;47.074;15.336;2023-02-28T10:32:50;6.40;48.00
3842;DHT22;1936;47.074;15.336;2023-02-28T10:34:57;6.70;47.30
3842;DHT22;1936;47.074;15.336;2023-02-28T10:37:03;6.70;47.40
3842;DHT22;1936;47.074;15.336;2023-02-28T10:39:35;6.80;47.40
3842;DHT22;1936;47.074;15.336;2023-02-28T10:41:43;6.90;46.60
3842;DHT22;1936;47.074;15.336;2023-02-28T10:43:48;6.90;46.50
3842;DHT22;1936;47.074;15.336;2023-02-28T10:45:58;6.70;46.60
3842;DHT22;1936;47.074;15.336;2023-02-28T10:48:04;6.70;48.00
3842;DHT22;1936;47.074;15.336;2023-02-28T10:50:26;6.50;47.70
3842;DHT22;1936;47.074;15.336;2023-02-28T10:52:36;6.60;47.60
3842;DHT22;1936;47.074;15.336;2023-02-28T10:54:41;6.70;47.60
3842;DHT22;1936;47.074;15.336;2023-02-28T10:56:45;6.70;47.20
3842;DHT22;1936;47.074;15.336;2023-02-28T10:58:52;7.00;47.10
3842;DHT22;1936;47.074;15.336;2023-02-28T11:00:56;7.20;46.70
3842;DHT22;1936;47.074;15.336;2023-02-28T11:03:00;7.00;45.30
3842;DHT22;1936;47.074;15.336;2023-02-28T11:05:26;7.20;45.60
3842;DHT22;1936;47.074;15.336;2023-02-28T11:07:29;6.90;46.40
3842;DHT22;1936;47.074;15.336;2023-02-28T11:09:49;6.70;46.60
3842;DHT22;1936;47.074;15.336;2023-02-28T11:11:53;6.80;46.30
3842;DHT22;1936;47.074;15.336;2023-02-28T11:14:04;7.20;46.40
3842;DHT22;1936;47.074;15.336;2023-02-28T11:16:11;7.10;45.90
3842;DHT22;1936;47.074;15.336;2023-02-28T11:18:24;7.50;45.50
3842;DHT22;1936;47.074;15.336;2023-02-28T11:20:32;6.80;44.60
3842;DHT22;1936;47.074;15.336;2023-02-28T11:22:38;6.80;47.40
3842;DHT22;1936;47.074;15.336;2023-02-28T11:24:44;7.70;47.20
3842;DHT22;1936;47.074;15.336;2023-02-28T11:26:49;7.90;45.70
3842;DHT22;1936;47.074;15.336;2023-02-28T11:29:08;8.00;43.50
3842;DHT22;1936;47.074;15.336;2023-02-28T11:31:17;7.60;43.50
3842;DHT22;1936;47.074;15.336;2023-02-28T11:33:27;7.70;43.90
3842;DHT22;1936;47.074;15.336;2023-02-28T11:35:33;7.80;43.90
3842;DHT22;1936;47.074;15.336;2023-02-28T11:37:39;8.10;45.00
3842;DHT22;1936;47.074;15.336;2023-02-28T11:39:44;9.00;43.60
3842;DHT22;1936;47.074;15.336;2023-02-28T11:42:07;9.40;43.00
3842;DHT22;1936;47.074;15.336;2023-02-28T11:44:28;9.70;41.90
3842;DHT22;1936;47.074;15.336;2023-02-28T11:46:39;9.60;41.30
3842;DHT22;1936;47.074;15.336;2023-02-28T11:48:52;9.60;40.20
3842;DHT22;1936;47.074;15.336;2023-02-28T11:51:08;9.50;41.90
3842;DHT22;1936;47.074;15.336;2023-02-28T11:53:22;9.90;40.60
3842;DHT22;1936;47.074;15.336;2023-02-28T11:55:34;9.40;41.10
3842;DHT22;1936;47.074;15.336;2023-02-28T12:00:19;9.80;41.60
3842;DHT22;1936;47.074;15.336;2023-02-28T12:02:30;9.50;40.80
3842;DHT22;1936;47.074;15.336;2023-02-28T12:04:47;9.30;41.30
3842;DHT22;1936;47.074;15.336;2023-02-28T12:07:02;9.10;41.30
3842;DHT22;1936;47.074;15.336;2023-02-28T12:09:20;8.50;44.00
3842;DHT22;1936;47.074;15.336;2023-02-28T12:11:36;8.70;42.40
3842;DHT22;1936;47.074;15.336;2023-02-28T12:13:50;8.70;42.70
3842;DHT22;1936;47.074;15.336;2023-02-28T12:16:17;8.70;43.80
3842;DHT22;1936;47.074;15.336;2023-02-28T12:18:36;8.90;43.90
3842;DHT22;1936;47.074;15.336;2023-02-28T12:20:48;9.10;44.10
3842;DHT22;1936;47.074;15.336;2023-02-28T12:22:59;9.40;42.30
3842;DHT22;1936;47.074;15.336;2023-02-28T12:27:55;9.00;43.40
3842;DHT22;1936;47.074;15.336;2023-02-28T12:30:21;9.00;43.50
3842;DHT22;1936;47.074;15.336;2023-02-28T12:32:40;8.80;43.80
3842;DHT22;1936;47.074;15.336;2023-02-28T12:34:47;8.30;42.90
3842;DHT22;1936;47.074;15.336;2023-02-28T12:36:52;8.20;45.60
3842;DHT22;1936;47.074;15.336;2023-02-28T12:39:01;8.20;45.10
3842;DHT22;1936;47.074;15.336;2023-02-28T12:41:11;8.00;45.90
3842;DHT22;1936;47.074;15.336;2023-02-28T12:43:17;8.20;45.90
3842;DHT22;1936;47.074;15.336;2023-02-28T12:45:24;8.50;45.30
3842;DHT22;1936;47.074;15.336;2023-02-28T12:47:29;8.30;46.30
3842;DHT22;1936;47.074;15.336;2023-02-28T12:49:34;8.40;46.70
3842;DHT22;1936;47.074;15.336;2023-02-28T12:51:39;8.50;44.30
3842;DHT22;1936;47.074;15.336;2023-02-28T12:53:54;8.10;45.70
3842;DHT22;1936;47.074;15.336;2023-02-28T12:56:10;7.80;48.50
3842;DHT22;1936;47.074;15.336;2023-02-28T12:58:20;8.40;45.20
3842;DHT22;1936;47.074;15.336;2023-02-28T13:00:31;8.90;43.60
3842;DHT22;1936;47.074;15.336;2023-02-28T13:03:18;9.00;43.50
3842;DHT22;1936;47.074;15.336;2023-02-28T13:08:36;9.50;42.80
3842;DHT22;1936;47.074;15.336;2023-02-28T13:10:44;9.50;43.10
3842;DHT22;1936;47.074;15.336;2023-02-28T13:12:49;9.20;44.30
3842;DHT22;1936;47.074;15.336;2023-02-28T13:15:04;9.60;43.90
3842;DHT22;1936;47.074;15.336;2023-02-28T13:17:12;9.40;44.30
3842;DHT22;1936;47.074;15.336;2023-02-28T13:19:19;9.40;42.70
3842;DHT22;1936;47.074;15.336;2023-02-28T13:21:24;9.50;43.70
3842;DHT22;1936;47.074;15.336;2023-02-28T13:25:58;9.40;43.40
3842;DHT22;1936;47.074;15.336;2023-02-28T13:28:09;9.70;43.70
3842;DHT22;1936;47.074;15.336;2023-02-28T13:33:21;9.70;42.80
3842;DHT22;1936;47.074;15.336;2023-02-28T13:35:43;10.30;42.10
3842;DHT22;1936;47.074;15.336;2023-02-28T13:37:48;9.60;42.60
3842;DHT22;1936;47.074;15.336;2023-02-28T13:39:55;9.70;41.80
3842;DHT22;1936;47.074;15.336;2023-02-28T13:42:23;9.90;41.50
3842;DHT22;1936;47.074;15.336;2023-02-28T13:44:28;9.50;42.80
3842;DHT22;1936;47.074;15.336;2023-02-28T13:46:32;9.30;42.90
3842;DHT22;1936;47.074;15.336;2023-02-28T13:48:38;9.40;43.10
3842;DHT22;1936;47.074;15.336;2023-02-28T13:50:44;9.00;43.20
3842;DHT22;1936;47.074;15.336;2023-02-28T13:52:55;8.70;43.30
3842;DHT22;1936;47.074;15.336;2023-02-28T13:55:25;8.60;43.70
3842;DHT22;1936;47.074;15.336;2023-02-28T13:57:38;8.50;44.60
3842;DHT22;1936;47.074;15.336;2023-02-28T13:59:50;8.30;45.00
3842;DHT22;1936;47.074;15.336;2023-02-28T14:02:09;7.90;46.50
3842;DHT22;1936;47.074;15.336;2023-02-28T14:06:48;7.80;46.80
3842;DHT22;1936;47.074;15.336;2023-02-28T14:08:57;8.00;47.10
3842;DHT22;1936;47.074;15.336;2023-02-28T14:11:04;7.80;47.60